EGDX

Details ICAO EGDX
Name RAF St Athan
Region United Kingdom
Timezone Europe/London (UTC+0.0)
Plans Departing 7
Arriving 13
Stats Elevation 163 ft / 50 m (AMSL)
Location 51.405195° -3.433466°
Runways 1
Magnetic Variation 1.612° W
Sunrise 2017-12-15 08:13:54 UTC / 2017-12-15 08:13:54 Local
Sunset 2017-12-15 16:06:40 UTC / 2017-12-15 16:06:40 Local
Advertisement - Login to hide

Runways

ID Width Length Bearing (true) Bearing (mag) Surface Threshold Offset Overrun Length
08 135 ft / 41 m 5,968 ft / 1,819 m 73.01° 74.62° Asphalt 0 ft / 0 m 148 ft / 45 m
26 135 ft / 41 m 5,968 ft / 1,819 m 253.03° 254.64° Asphalt 0 ft / 0 m 174 ft / 53 m

Map

Weather


0- 5 10 15 20 25 30 35+ Temperature / ° C

Clouds and Precipitation
Forecast for 2017-12-15 06:00 UTC. Updated an hour ago

Ground ~20,000 ft ~40,000 ft Winds

METAR

EGDX 150350Z AUTO 29019KT 9999 SCT021/// SCT026/// 07/03 Q0992 RERA

TAF

Not found

Frequencies

Tower 118.12 MHz TWR
Approach 125.85 MHz CARDIFF APP
Approach 126.62 MHz APP
Warning: Do not use this data for real-world aviation or navigation. No guarantee of current accuracy is given.